Time;durP1;ratioP1;P1;durP2;ratioP2;P2;SDS_P1;SDS_P2;PMS_P1;PMS_P2;Temp;Humidity;BMP_temperature;BMP_pressure;BME280_temperature;BME280_humidity;BME280_pressure;Samples;Min_cycle;Max_cycle;Signal;HPM_P1;HPM_P2
2021/12/22 00:02:23;;;;;;;74.63;22.27;;;-3.00;99.90;;;;;;4618251;28;10000510;-73
2021/12/22 00:04:50;;;;;;;42.28;21.88;;;-3.00;99.90;;;;;;4962953;28;20055;-73
2021/12/22 00:07:16;;;;;;;53.90;22.15;;;-3.10;99.90;;;;;;4961053;28;20058;-72
2021/12/22 00:09:43;;;;;;;38.75;20.73;;;-3.00;99.90;;;;;;4967510;28;20027;-72
2021/12/22 00:12:10;;;;;;;39.22;20.98;;;-3.10;99.90;;;;;;4960420;28;20656;-72
2021/12/22 00:14:36;;;;;;;42.83;20.25;;;-3.00;99.90;;;;;;4969109;28;20085;-72
2021/12/22 00:17:03;;;;;;;37.17;20.35;;;-3.10;99.90;;;;;;4964977;28;20038;-72
2021/12/22 00:19:29;;;;;;;48.22;21.77;;;-3.10;99.90;;;;;;4957130;28;20391;-72
2021/12/22 00:21:56;;;;;;;38.08;20.63;;;-3.20;99.90;;;;;;4966810;28;20034;-72
2021/12/22 00:24:22;;;;;;;40.65;20.95;;;-3.20;99.90;;;;;;4968416;28;20110;-72
2021/12/22 00:26:48;;;;;;;36.50;20.17;;;-3.10;99.90;;;;;;4959987;28;20050;-73
2021/12/22 00:29:16;;;;;;;62.60;20.27;;;-3.10;99.90;;;;;;4966757;28;20038;-73
2021/12/22 00:31:56;;;;;;;35.15;20.02;;;-3.10;99.90;;;;;;4966336;28;20510;-73
2021/12/22 00:34:25;;;;;;;31.08;18.27;;;-3.10;99.90;;;;;;4959743;28;20122;-73
2021/12/22 00:36:51;;;;;;;35.85;19.60;;;-3.10;99.90;;;;;;4966736;28;20038;-73
2021/12/22 00:39:17;;;;;;;38.97;20.02;;;-3.20;99.90;;;;;;4963896;28;20058;-72
2021/12/22 00:41:43;;;;;;;36.30;20.13;;;-3.10;99.90;;;;;;4969358;28;20114;-72
2021/12/22 00:44:12;;;;;;;40.65;19.95;;;-3.20;99.90;;;;;;4959674;28;20051;-73
2021/12/22 00:46:38;;;;;;;38.38;20.23;;;-3.20;99.90;;;;;;4962595;28;20101;-73
2021/12/22 00:49:04;;;;;;;38.47;20.67;;;-3.20;99.90;;;;;;4970171;28;20486;-72
2021/12/22 00:51:30;;;;;;;40.28;21.90;;;-3.10;99.90;;;;;;4958702;28;20455;-73
2021/12/22 00:53:56;;;;;;;34.78;19.40;;;-3.20;99.90;;;;;;4966955;28;20039;-72
2021/12/22 00:56:22;;;;;;;37.08;19.52;;;-3.20;99.90;;;;;;4968209;28;20435;-74
2021/12/22 00:58:49;;;;;;;34.67;19.40;;;-3.20;99.90;;;;;;4965026;28;20564;-73
2021/12/22 01:01:15;;;;;;;32.65;17.33;;;-3.20;99.90;;;;;;4967730;28;20031;-72
2021/12/22 01:03:41;;;;;;;50.08;18.70;;;-3.20;99.90;;;;;;4966615;28;20391;-73
2021/12/22 01:06:07;;;;;;;38.00;18.52;;;-3.20;99.90;;;;;;4967014;28;20568;-73
2021/12/22 01:08:33;;;;;;;36.65;20.05;;;-3.20;99.90;;;;;;4967674;28;20039;-72
2021/12/22 01:11:00;;;;;;;38.88;20.00;;;-3.20;99.90;;;;;;4971365;28;20049;-73
2021/12/22 01:13:28;;;;;;;33.00;18.58;;;-3.30;99.90;;;;;;4970044;28;20517;-73
2021/12/22 01:15:54;;;;;;;33.15;18.92;;;-3.20;99.90;;;;;;4969927;28;20041;-73
2021/12/22 01:18:30;;;;;;;45.63;18.40;;;-3.20;99.90;;;;;;4966054;28;20043;-73
2021/12/22 01:23:59;;;;;;;56.10;19.92;;;-3.30;99.90;;;;;;4969995;28;20105;-72
2021/12/22 01:26:31;;;;;;;33.70;18.60;;;-3.30;99.90;;;;;;4967463;28;20058;-73
2021/12/22 01:28:58;;;;;;;35.70;19.67;;;-3.30;99.90;;;;;;4970629;28;20109;-73
2021/12/22 01:31:25;;;;;;;38.67;20.08;;;-3.40;99.90;;;;;;4966053;28;20053;-72
2021/12/22 01:33:51;;;;;;;38.22;19.85;;;-3.30;99.90;;;;;;4968647;28;20137;-72
2021/12/22 01:36:17;;;;;;;37.92;20.45;;;-3.20;99.90;;;;;;4967643;28;20026;-72
2021/12/22 01:38:43;;;;;;;33.25;18.75;;;-3.20;99.90;;;;;;4954689;28;20039;-72
2021/12/22 01:41:10;;;;;;;34.70;19.02;;;-3.20;99.90;;;;;;4967395;28;20039;-73
2021/12/22 01:43:36;;;;;;;37.75;19.92;;;-3.20;99.90;;;;;;4962262;28;20035;-73
2021/12/22 01:51:44;;;;;;;41.40;19.17;;;-3.20;99.90;;;;;;4968930;28;20081;-73
2021/12/22 01:54:20;;;;;;;31.50;18.33;;;-3.10;99.90;;;;;;4965450;28;20027;-73
2021/12/22 01:56:50;;;;;;;35.13;17.98;;;-3.20;99.90;;;;;;4968695;28;20126;-73
2021/12/22 01:59:17;;;;;;;38.40;19.98;;;-3.20;99.90;;;;;;4972517;28;20104;-72
2021/12/22 02:01:44;;;;;;;32.78;17.40;;;-3.10;99.90;;;;;;4972636;28;20121;-72
2021/12/22 02:04:12;;;;;;;33.65;18.35;;;-3.10;99.90;;;;;;4966267;28;20023;-72
2021/12/22 02:06:43;;;;;;;38.00;18.88;;;-3.20;99.90;;;;;;4963664;28;20102;-73
2021/12/22 02:09:12;;;;;;;36.42;18.13;;;-3.20;99.90;;;;;;4966045;28;20446;-73
2021/12/22 02:11:38;;;;;;;32.97;18.02;;;-3.20;99.90;;;;;;4966579;28;20042;-73
2021/12/22 02:14:06;;;;;;;34.28;18.15;;;-3.30;99.90;;;;;;4966003;28;20106;-73
2021/12/22 02:16:37;;;;;;;32.47;18.38;;;-3.30;99.90;;;;;;4962955;28;20039;-72
2021/12/22 02:19:06;;;;;;;33.17;17.08;;;-3.30;99.90;;;;;;4968751;28;20037;-72
2021/12/22 02:21:38;;;;;;;31.60;17.83;;;-3.40;99.90;;;;;;4967551;28;20035;-73
2021/12/22 02:24:04;;;;;;;33.85;18.42;;;-3.30;99.90;;;;;;4968858;28;20043;-72
2021/12/22 02:26:54;;;;;;;33.65;17.40;;;-3.40;99.90;;;;;;4967955;28;20058;-72
2021/12/22 02:29:22;;;;;;;33.95;18.35;;;-3.30;99.90;;;;;;4964706;28;20035;-72
2021/12/22 02:32:08;;;;;;;34.70;17.00;;;-3.30;99.90;;;;;;4957889;28;20035;-72
2021/12/22 02:34:41;;;;;;;30.60;16.95;;;-3.40;99.90;;;;;;4968289;28;20031;-72
2021/12/22 02:37:14;;;;;;;48.13;17.35;;;-3.40;99.90;;;;;;4961957;28;20031;-72
2021/12/22 02:39:57;;;;;;;31.25;16.27;;;-3.30;99.90;;;;;;4969087;28;20142;-73
2021/12/22 02:42:27;;;;;;;33.55;16.08;;;-3.40;99.90;;;;;;4968583;28;20035;-72
2021/12/22 02:44:53;;;;;;;33.70;15.13;;;-3.40;99.90;;;;;;4960755;28;20031;-72
2021/12/22 02:47:25;;;;;;;31.25;17.50;;;-3.40;99.90;;;;;;4965927;28;20057;-72
2021/12/22 02:49:51;;;;;;;30.13;15.97;;;-3.50;99.90;;;;;;4960323;28;20513;-72
2021/12/22 02:52:19;;;;;;;30.27;15.98;;;-3.40;99.90;;;;;;4961518;28;20291;-72
2021/12/22 02:54:56;;;;;;;26.55;14.75;;;-3.50;99.90;;;;;;4978517;28;20033;-72
2021/12/22 02:57:33;;;;;;;27.83;15.10;;;-3.50;99.90;;;;;;4970375;28;20042;-72
2021/12/22 03:02:43;;;;;;;19.65;11.55;;;-3.50;99.90;;;;;;4969416;28;20110;-72
2021/12/22 03:05:10;;;;;;;28.08;15.25;;;-3.50;99.90;;;;;;4965692;28;20395;-72
2021/12/22 03:07:37;;;;;;;49.30;15.93;;;-3.60;99.90;;;;;;4968671;28;20126;-72
2021/12/22 03:10:12;;;;;;;43.42;15.05;;;-3.60;99.90;;;;;;4966459;28;20034;-72
2021/12/22 03:12:39;;;;;;;30.67;14.95;;;-3.60;99.90;;;;;;4968779;28;20043;-73
2021/12/22 03:15:09;;;;;;;28.73;15.65;;;-3.60;99.90;;;;;;4970157;28;20074;-72
2021/12/22 03:17:35;;;;;;;27.45;15.00;;;-3.60;99.90;;;;;;4977678;28;20035;-72
2021/12/22 03:20:03;;;;;;;26.15;14.73;;;-3.50;99.90;;;;;;4970578;28;20041;-72
2021/12/22 03:22:29;;;;;;;26.75;14.25;;;-3.50;99.90;;;;;;4967440;28;20110;-72
2021/12/22 03:24:55;;;;;;;24.90;14.48;;;-3.50;99.90;;;;;;4958266;28;20089;-72
2021/12/22 03:27:23;;;;;;;29.35;13.45;;;-3.60;99.90;;;;;;4971353;28;20031;-72
2021/12/22 03:29:49;;;;;;;37.38;13.77;;;-3.60;99.90;;;;;;4970036;28;20030;-72
2021/12/22 03:32:15;;;;;;;36.03;14.27;;;-3.70;99.90;;;;;;4971528;28;20030;-73
2021/12/22 03:34:42;;;;;;;24.13;14.35;;;-3.70;99.90;;;;;;4969110;28;20030;-72
2021/12/22 03:37:09;;;;;;;33.55;14.32;;;-3.70;99.90;;;;;;4962158;28;20035;-73
2021/12/22 03:39:36;;;;;;;25.75;14.23;;;-3.70;99.90;;;;;;4967859;28;20839;-72
2021/12/22 03:42:03;;;;;;;25.40;14.80;;;-3.70;99.90;;;;;;4969671;28;20483;-73
2021/12/22 03:44:29;;;;;;;24.33;13.63;;;-3.70;99.90;;;;;;4971162;28;20109;-72
2021/12/22 03:46:58;;;;;;;31.75;15.35;;;-3.70;99.90;;;;;;4964899;28;20070;-72
2021/12/22 03:49:24;;;;;;;29.00;15.43;;;-3.70;99.90;;;;;;4964035;28;20058;-72
2021/12/22 03:51:50;;;;;;;37.97;14.43;;;-3.70;99.90;;;;;;4965439;28;20097;-72
2021/12/22 03:54:15;;;;;;;27.38;14.23;;;-3.70;99.90;;;;;;4969278;28;20026;-72
2021/12/22 03:56:41;;;;;;;31.35;15.73;;;-3.80;99.90;;;;;;4968586;28;20030;-72
2021/12/22 03:59:07;;;;;;;29.13;15.27;;;-3.80;99.90;;;;;;4971148;28;20398;-73
2021/12/22 04:01:33;;;;;;;27.00;14.48;;;-3.80;99.90;;;;;;4966904;28;20027;-72
2021/12/22 04:04:04;;;;;;;28.92;15.63;;;-3.80;99.90;;;;;;4967097;28;20018;-72
2021/12/22 04:06:30;;;;;;;27.05;15.00;;;-3.70;99.90;;;;;;4963674;28;20574;-72
2021/12/22 04:08:55;;;;;;;28.83;16.00;;;-3.60;99.90;;;;;;4969642;28;20114;-72
2021/12/22 04:11:21;;;;;;;27.20;15.15;;;-3.70;99.90;;;;;;4966177;28;20026;-72
2021/12/22 04:13:48;;;;;;;29.00;15.60;;;-3.60;99.90;;;;;;4970064;28;20399;-72
2021/12/22 04:16:14;;;;;;;29.05;14.82;;;-3.60;99.90;;;;;;4970133;28;20101;-72
2021/12/22 04:18:40;;;;;;;31.05;15.70;;;-3.60;99.90;;;;;;4970800;28;20035;-72
2021/12/22 04:21:05;;;;;;;29.13;16.08;;;-3.70;99.90;;;;;;4965799;28;20062;-72
2021/12/22 04:23:31;;;;;;;30.70;15.98;;;-3.70;99.90;;;;;;4967491;28;20114;-72
2021/12/22 04:25:57;;;;;;;29.05;15.60;;;-3.70;99.90;;;;;;4968127;28;20034;-72
2021/12/22 04:28:22;;;;;;;35.33;15.65;;;-3.70;99.90;;;;;;4962534;28;20031;-72
2021/12/22 04:30:50;;;;;;;27.33;15.45;;;-3.70;99.90;;;;;;4963495;28;20031;-72
2021/12/22 04:33:17;;;;;;;29.50;15.88;;;-3.70;99.90;;;;;;4968598;28;20478;-72
2021/12/22 04:35:43;;;;;;;26.90;15.05;;;-3.60;99.90;;;;;;4969178;28;20027;-72
2021/12/22 04:38:09;;;;;;;25.60;14.90;;;-3.60;99.90;;;;;;4965248;28;20391;-72
2021/12/22 04:40:35;;;;;;;29.75;15.52;;;-3.70;99.90;;;;;;4969383;28;20059;-72
2021/12/22 04:43:00;;;;;;;29.77;14.82;;;-3.70;99.90;;;;;;4969568;28;20031;-72
2021/12/22 04:45:26;;;;;;;34.20;15.38;;;-3.70;99.90;;;;;;4964023;28;20037;-72
2021/12/22 04:47:52;;;;;;;36.00;15.80;;;-3.70;99.90;;;;;;4971243;28;20154;-72
2021/12/22 04:50:20;;;;;;;45.58;15.18;;;-3.80;99.90;;;;;;4966564;28;20038;-72
2021/12/22 04:55:25;;;;;;;32.25;15.68;;;-3.90;99.90;;;;;;4962976;28;20030;-72
2021/12/22 04:57:56;;;;;;;28.15;15.70;;;-3.90;99.90;;;;;;4969444;28;20065;-72
2021/12/22 05:00:26;;;;;;;33.38;16.38;;;-3.90;99.90;;;;;;4961610;28;20642;-72
2021/12/22 05:02:52;;;;;;;48.22;15.20;;;-3.90;99.90;;;;;;4963203;28;20043;-72
2021/12/22 05:05:17;;;;;;;38.15;15.15;;;-3.90;99.90;;;;;;4963645;28;20031;-71
2021/12/22 05:07:44;;;;;;;40.40;15.18;;;-3.90;99.90;;;;;;4968004;28;20093;-71
2021/12/22 05:10:10;;;;;;;49.55;16.10;;;-3.90;99.90;;;;;;4965294;28;20549;-72
2021/12/22 05:12:36;;;;;;;32.25;15.43;;;-4.00;99.90;;;;;;4967275;28;20058;-72
2021/12/22 05:15:03;;;;;;;29.60;16.27;;;-4.00;99.90;;;;;;4966339;28;20030;-72
2021/12/22 05:18:01;;;;;;;31.83;16.75;;;-4.00;99.90;;;;;;4965465;28;20047;-72
2021/12/22 05:20:24;;;;;;;28.80;15.70;;;-3.90;99.90;;;;;;4967886;28;20039;-72
2021/12/22 05:22:51;;;;;;;30.08;15.82;;;-3.80;99.90;;;;;;4964045;28;20022;-73
2021/12/22 05:25:17;;;;;;;30.48;15.75;;;-3.80;99.90;;;;;;4964929;28;20474;-72
2021/12/22 05:27:43;;;;;;;29.17;15.45;;;-3.80;99.90;;;;;;4967626;28;20035;-72
2021/12/22 05:30:11;;;;;;;29.77;15.35;;;-3.80;99.90;;;;;;4965470;28;20396;-72
2021/12/22 05:32:37;;;;;;;28.13;15.40;;;-3.90;99.90;;;;;;4968046;28;20031;-72
2021/12/22 05:35:06;;;;;;;27.40;15.80;;;-3.80;99.90;;;;;;4962870;28;20039;-72
2021/12/22 05:37:31;;;;;;;34.83;16.20;;;-3.80;99.90;;;;;;4965949;28;20494;-72
2021/12/22 05:39:57;;;;;;;28.50;15.50;;;-3.80;99.90;;;;;;4967792;28;20071;-72
2021/12/22 05:42:24;;;;;;;34.20;17.13;;;-3.80;99.90;;;;;;4965522;28;20023;-72
2021/12/22 05:44:50;;;;;;;32.13;15.02;;;-3.70;99.90;;;;;;4968608;28;20122;-72
2021/12/22 05:47:15;;;;;;;28.67;15.13;;;-3.70;99.90;;;;;;4960959;28;20162;-72
2021/12/22 05:49:43;;;;;;;37.95;16.45;;;-3.70;99.90;;;;;;4965839;28;20110;-72
2021/12/22 05:52:08;;;;;;;28.27;15.18;;;-3.70;99.90;;;;;;4963071;28;20375;-72
2021/12/22 05:54:34;;;;;;;31.70;17.63;;;-3.80;99.90;;;;;;4966966;28;20030;-72
2021/12/22 05:56:59;;;;;;;33.10;17.27;;;-3.70;99.90;;;;;;4965537;28;20031;-72
2021/12/22 05:59:25;;;;;;;31.10;16.65;;;-3.70;99.90;;;;;;4961056;28;20110;-72
2021/12/22 06:01:51;;;;;;;29.17;14.95;;;-3.70;99.90;;;;;;4964809;28;20034;-72
2021/12/22 06:04:16;;;;;;;32.30;16.40;;;-3.70;99.90;;;;;;4957278;28;20201;-71
2021/12/22 06:06:43;;;;;;;32.33;17.27;;;-3.70;99.90;;;;;;4961543;28;20058;-72
2021/12/22 06:09:08;;;;;;;33.13;17.25;;;-3.70;99.90;;;;;;4976347;28;20397;-72
2021/12/22 06:11:34;;;;;;;30.77;16.73;;;-3.70;99.90;;;;;;4980687;28;20038;-72
2021/12/22 06:14:00;;;;;;;34.33;17.83;;;-3.70;99.90;;;;;;4955547;28;20027;-72
2021/12/22 06:16:27;;;;;;;32.25;16.30;;;-3.70;99.90;;;;;;4963303;28;20027;-72
2021/12/22 06:18:57;;;;;;;55.67;16.85;;;-3.60;99.90;;;;;;4970354;28;20117;-72
2021/12/22 06:21:24;;;;;;;30.45;15.70;;;-3.60;99.90;;;;;;4965098;28;20084;-73
2021/12/22 06:23:50;;;;;;;29.20;16.05;;;-3.70;99.90;;;;;;4959991;28;20043;-72
2021/12/22 06:26:16;;;;;;;30.42;16.27;;;-3.70;99.90;;;;;;4963577;28;20479;-72
2021/12/22 06:28:41;;;;;;;34.10;17.65;;;-3.70;99.90;;;;;;4959089;28;20039;-71
2021/12/22 06:31:07;;;;;;;32.22;16.65;;;-3.70;99.90;;;;;;4966468;28;20514;-72
2021/12/22 06:33:33;;;;;;;35.08;16.55;;;-3.70;99.90;;;;;;4957825;28;20046;-72
2021/12/22 06:35:59;;;;;;;34.20;17.60;;;-3.70;99.90;;;;;;4961592;28;20033;-71
2021/12/22 06:38:25;;;;;;;35.35;17.73;;;-3.70;99.90;;;;;;4968156;28;20037;-71
2021/12/22 06:40:51;;;;;;;29.40;16.25;;;-3.70;99.90;;;;;;4969549;28;20085;-72
2021/12/22 06:43:18;;;;;;;35.88;18.40;;;-3.70;99.90;;;;;;4970496;28;20085;-72
2021/12/22 06:45:44;;;;;;;36.35;18.10;;;-3.60;99.90;;;;;;4969386;28;20026;-72
2021/12/22 06:48:09;;;;;;;38.30;18.80;;;-3.60;99.90;;;;;;4964415;28;20121;-72
2021/12/22 06:50:36;;;;;;;36.55;19.70;;;-3.60;99.90;;;;;;4964747;28;20073;-72
2021/12/22 06:53:02;;;;;;;44.92;19.92;;;-3.60;99.90;;;;;;4968853;28;20066;-72
2021/12/22 06:55:28;;;;;;;36.25;17.98;;;-3.60;99.90;;;;;;4963523;28;20478;-72
2021/12/22 06:57:55;;;;;;;35.38;17.33;;;-3.60;99.90;;;;;;4969658;28;20030;-72
2021/12/22 07:00:22;;;;;;;65.00;20.33;;;-3.60;99.90;;;;;;4962856;28;20070;-72
2021/12/22 07:02:48;;;;;;;34.25;17.38;;;-3.70;99.90;;;;;;4961269;28;20384;-72
2021/12/22 07:05:14;;;;;;;58.67;17.48;;;-3.80;99.90;;;;;;4968534;28;20089;-72
2021/12/22 07:07:41;;;;;;;39.67;20.15;;;-3.80;99.90;;;;;;4968886;28;20053;-72
2021/12/22 07:10:10;;;;;;;33.42;17.58;;;-3.80;99.90;;;;;;4966035;28;20034;-72
2021/12/22 07:12:39;;;;;;;35.50;19.08;;;-3.80;99.90;;;;;;4967376;28;20094;-72
2021/12/22 07:15:07;;;;;;;35.53;17.50;;;-3.70;99.90;;;;;;4972217;28;20038;-72
2021/12/22 07:17:34;;;;;;;29.75;16.40;;;-3.70;99.90;;;;;;4963313;28;20030;-72
2021/12/22 07:20:00;;;;;;;31.90;16.95;;;-3.70;99.90;;;;;;4958567;28;20487;-72
2021/12/22 07:22:26;;;;;;;40.65;18.70;;;-3.70;99.90;;;;;;4963806;28;20442;-72
2021/12/22 07:24:52;;;;;;;41.78;16.90;;;-3.80;99.90;;;;;;4967421;28;20034;-72
2021/12/22 07:27:18;;;;;;;39.75;19.40;;;-3.80;99.90;;;;;;4973416;28;20026;-72
2021/12/22 07:29:44;;;;;;;41.72;20.70;;;-3.80;99.90;;;;;;4962173;28;20628;-72
2021/12/22 07:32:10;;;;;;;46.13;25.02;;;-3.70;99.90;;;;;;4982800;28;20090;-72
2021/12/22 07:35:06;;;;;;;52.05;21.50;;;-3.80;99.90;;;;;;4969185;28;20114;-72
2021/12/22 07:37:40;;;;;;;36.97;18.35;;;-3.70;99.90;;;;;;4965877;28;20427;-72
2021/12/22 07:40:09;;;;;;;34.55;18.33;;;-3.70;99.90;;;;;;4966744;28;20159;-72
2021/12/22 07:42:36;;;;;;;47.55;20.08;;;-3.80;99.90;;;;;;4969008;28;20033;-72
2021/12/22 07:45:02;;;;;;;36.90;17.88;;;-3.80;99.90;;;;;;4964178;28;20629;-72
2021/12/22 07:47:29;;;;;;;78.63;17.55;;;-3.80;99.90;;;;;;4961441;28;20061;-72
2021/12/22 07:49:54;;;;;;;56.88;17.73;;;-3.80;99.90;;;;;;4972078;28;20083;-72
2021/12/22 07:52:21;;;;;;;31.98;16.08;;;-3.90;99.90;;;;;;4967658;28;20043;-71
2021/12/22 07:54:47;;;;;;;36.80;18.23;;;-3.90;99.90;;;;;;4965476;28;20079;-72
2021/12/22 07:57:13;;;;;;;33.53;16.90;;;;;;;;;;4962634;28;20252;-76
2021/12/22 07:59:39;;;;;;;41.60;17.50;;;-3.80;99.90;;;;;;4966751;28;20557;-74
2021/12/22 08:02:05;;;;;;;32.75;17.13;;;-3.90;99.90;;;;;;4962439;28;20522;-74
2021/12/22 08:04:31;;;;;;;31.35;17.10;;;-3.90;99.90;;;;;;4964880;28;20118;-77
2021/12/22 08:06:57;;;;;;;31.13;16.50;;;-3.90;99.90;;;;;;4966025;28;20502;-72
2021/12/22 08:09:26;;;;;;;34.10;17.55;;;-3.80;99.90;;;;;;4963321;28;20027;-72
2021/12/22 08:12:04;;;;;;;34.00;17.30;;;-3.70;99.90;;;;;;4974905;28;20491;-73
2021/12/22 08:14:34;;;;;;;33.38;16.73;;;-3.70;99.90;;;;;;4962598;28;20110;-72
2021/12/22 08:17:00;;;;;;;32.53;16.60;;;-3.70;99.90;;;;;;4964699;28;20038;-74
2021/12/22 08:19:26;;;;;;;39.05;17.17;;;-3.70;99.90;;;;;;4966334;28;20046;-75
2021/12/22 08:21:52;;;;;;;36.83;18.00;;;-3.70;99.90;;;;;;4959580;28;20073;-72
2021/12/22 08:24:18;;;;;;;32.55;16.02;;;-3.80;99.90;;;;;;4967757;28;20066;-71
2021/12/22 08:26:45;;;;;;;31.58;16.55;;;-3.80;99.90;;;;;;4961428;28;20030;-71
2021/12/22 08:29:11;;;;;;;30.08;16.65;;;-3.80;99.90;;;;;;4955729;28;20118;-72
2021/12/22 08:31:37;;;;;;;32.38;16.23;;;-3.80;99.90;;;;;;4958135;28;20031;-72
2021/12/22 08:34:04;;;;;;;30.00;16.27;;;-3.70;99.90;;;;;;4980978;28;20057;-71
2021/12/22 08:39:15;;;;;;;41.45;18.05;;;-3.60;99.90;;;;;;4957243;28;20038;-72
2021/12/22 08:41:45;;;;;;;33.47;18.13;;;-3.60;99.90;;;;;;4971440;28;20030;-71
2021/12/22 08:44:12;;;;;;;39.72;19.90;;;-3.70;99.90;;;;;;4958007;28;20451;-72
2021/12/22 08:46:42;;;;;;;41.97;20.55;;;-3.70;99.90;;;;;;4957380;28;20034;-76
2021/12/22 08:49:08;;;;;;;33.65;17.65;;;-3.60;99.90;;;;;;4961879;28;20118;-75
2021/12/22 08:51:35;;;;;;;32.42;17.23;;;-3.60;99.90;;;;;;4961310;28;20037;-75
2021/12/22 08:54:01;;;;;;;32.47;17.15;;;-3.60;99.90;;;;;;4963702;28;20044;-76
2021/12/22 08:56:29;;;;;;;33.88;17.60;;;-3.60;99.90;;;;;;4957051;28;20038;-76
2021/12/22 08:58:55;;;;;;;33.13;17.73;;;-3.60;99.90;;;;;;4956833;28;20035;-76
2021/12/22 09:01:22;;;;;;;38.75;19.73;;;-3.50;99.90;;;;;;4967545;28;20081;-76
2021/12/22 09:03:48;;;;;;;38.53;18.98;;;-3.50;99.90;;;;;;4964576;28;20482;-75
2021/12/22 09:06:14;;;;;;;46.45;23.27;;;-3.50;99.90;;;;;;4969126;28;20051;-76
2021/12/22 09:08:41;;;;;;;45.13;24.00;;;-3.50;99.90;;;;;;4964581;28;20046;-75
2021/12/22 09:11:09;;;;;;;57.45;29.10;;;-3.50;99.90;;;;;;4963876;28;20030;-75
2021/12/22 09:13:38;;;;;;;46.28;23.80;;;-3.50;99.90;;;;;;4965320;28;20522;-75
2021/12/22 09:16:05;;;;;;;40.15;19.45;;;-3.50;99.90;;;;;;4965994;28;20027;-75
2021/12/22 09:18:31;;;;;;;49.53;23.52;;;-3.50;99.90;;;;;;4970174;28;20723;-75
2021/12/22 09:20:57;;;;;;;39.35;21.10;;;-3.50;99.90;;;;;;4962276;28;20030;-75
2021/12/22 09:23:24;;;;;;;40.72;19.88;;;-3.50;99.90;;;;;;4968678;28;20090;-72
2021/12/22 09:25:50;;;;;;;39.90;20.50;;;-3.40;99.90;;;;;;4963805;28;20030;-74
2021/12/22 09:28:16;;;;;;;38.88;20.70;;;-3.40;99.90;;;;;;4967368;28;20027;-74
2021/12/22 09:30:44;;;;;;;44.80;23.00;;;-3.30;99.90;;;;;;4962005;28;20027;-74
2021/12/22 09:33:12;;;;;;;45.78;21.65;;;-3.40;99.90;;;;;;4969912;28;20446;-74
2021/12/22 09:35:39;;;;;;;43.90;18.80;;;-3.30;99.90;;;;;;4966809;28;20041;-74
2021/12/22 09:38:06;;;;;;;32.97;18.45;;;-3.30;99.90;;;;;;4955770;28;20337;-74
2021/12/22 09:40:33;;;;;;;33.28;17.85;;;-3.30;99.90;;;;;;4962631;28;20586;-74
2021/12/22 09:42:59;;;;;;;41.53;20.08;;;-3.20;99.90;;;;;;4965471;28;20672;-74
2021/12/22 09:45:26;;;;;;;34.35;17.83;;;-3.30;99.90;;;;;;4969181;28;20113;-74
2021/12/22 09:52:15;;;;;;;42.65;20.85;;;-3.30;99.90;;;;;;4956944;28;20035;-74
2021/12/22 09:53:37;;;;;;;43.20;21.83;;;-3.30;99.90;;;;;;4965286;28;20039;-72
2021/12/22 09:56:04;;;;;;;40.08;19.75;;;-3.30;99.90;;;;;;4959596;28;20035;-72
2021/12/22 09:58:31;;;;;;;41.95;21.13;;;-3.20;99.90;;;;;;4958452;28;20093;-72
2021/12/22 10:00:58;;;;;;;37.88;19.55;;;-3.20;99.90;;;;;;4968632;28;20030;-72
2021/12/22 10:03:25;;;;;;;33.08;17.35;;;-3.10;99.90;;;;;;4967190;28;20482;-72
2021/12/22 10:05:52;;;;;;;37.10;20.02;;;-3.10;99.90;;;;;;4967745;28;20051;-72
2021/12/22 10:08:20;;;;;;;47.92;22.85;;;-3.10;99.90;;;;;;4969193;28;20110;-73
2021/12/22 10:10:47;;;;;;;42.72;21.40;;;-3.00;99.90;;;;;;4963119;28;20118;-72
2021/12/22 10:13:16;;;;;;;62.05;32.92;;;-2.90;99.90;;;;;;4967727;28;20561;-72
2021/12/22 10:15:43;;;;;;;41.80;22.60;;;-2.70;99.90;;;;;;4968953;28;20057;-72
2021/12/22 10:18:09;;;;;;;41.72;22.00;;;-2.70;99.90;;;;;;4968201;28;20086;-72
2021/12/22 10:20:36;;;;;;;44.10;21.00;;;-2.70;99.90;;;;;;4965480;28;20031;-72
2021/12/22 10:23:17;;;;;;;41.47;20.83;;;-2.70;99.90;;;;;;4960585;28;20015;-72
2021/12/22 10:25:49;;;;;;;40.38;18.40;;;-2.70;99.90;;;;;;4956739;28;20027;-70
2021/12/22 10:28:18;;;;;;;47.58;24.20;;;-2.60;99.90;;;;;;4962295;28;20027;-72
2021/12/22 10:30:45;;;;;;;40.22;21.75;;;-2.60;99.90;;;;;;4966597;28;20165;-72
2021/12/22 10:33:20;;;;;;;41.95;21.60;;;-2.60;99.90;;;;;;4964306;28;20026;-72
2021/12/22 10:35:52;;;;;;;42.45;20.50;;;-2.50;99.90;;;;;;4966942;28;20034;-72
2021/12/22 10:38:25;;;;;;;30.08;15.77;;;-2.50;99.90;;;;;;4954960;28;20034;-72
2021/12/22 10:40:54;;;;;;;36.75;19.75;;;-2.40;99.90;;;;;;4964999;28;20316;-72
2021/12/22 10:43:22;;;;;;;41.05;22.90;;;-2.40;99.90;;;;;;4958875;28;20042;-72
2021/12/22 10:45:51;;;;;;;38.20;21.83;;;-2.40;99.90;;;;;;4959697;28;20109;-72
2021/12/22 10:51:10;;;;;;;41.30;21.35;;;-2.50;99.90;;;;;;4967694;28;20470;-72
2021/12/22 10:53:44;;;;;;;38.30;20.95;;;-2.50;99.90;;;;;;4968106;28;20375;-72
2021/12/22 10:56:22;;;;;;;38.70;21.33;;;-2.50;99.90;;;;;;4960013;28;20031;-72
2021/12/22 10:58:59;;;;;;;41.53;21.15;;;-2.40;99.90;;;;;;4958242;28;20030;-73
2021/12/22 11:01:25;;;;;;;43.15;22.42;;;-2.50;99.90;;;;;;4958047;28;20082;-72
2021/12/22 11:04:00;;;;;;;42.92;21.92;;;-2.40;99.90;;;;;;4960419;28;20130;-72
2021/12/22 11:06:29;;;;;;;41.47;19.65;;;-2.40;99.90;;;;;;4965207;28;20505;-71
2021/12/22 11:09:04;;;;;;;34.42;18.58;;;-2.30;99.90;;;;;;4962997;28;20031;-72
2021/12/22 11:11:36;;;;;;;34.60;19.02;;;-2.30;99.90;;;;;;4960481;28;20114;-70
2021/12/22 11:14:13;;;;;;;37.88;20.23;;;-2.30;99.90;;;;;;4958164;28;20062;-72
2021/12/22 11:17:20;;;;;;;38.47;20.98;;;-2.20;99.90;;;;;;4963188;28;20129;-73
2021/12/22 11:19:58;;;;;;;41.65;22.65;;;-2.10;99.90;;;;;;4937482;28;20134;-73
2021/12/22 11:22:51;;;;;;;36.15;20.15;;;-2.00;99.90;;;;;;4939569;29;20063;-73
2021/12/22 11:25:18;;;;;;;40.05;21.13;;;-1.90;99.90;;;;;;4959177;28;20046;-73
2021/12/22 11:27:44;;;;;;;43.80;22.55;;;-1.80;99.90;;;;;;4968425;28;20506;-72
2021/12/22 11:30:12;;;;;;;39.13;21.08;;;-1.80;99.90;;;;;;4967645;28;20061;-73
2021/12/22 11:32:38;;;;;;;39.42;21.40;;;-1.70;99.90;;;;;;4964883;28;20034;-73
2021/12/22 11:35:08;;;;;;;39.75;21.05;;;-1.70;99.90;;;;;;4956715;28;20117;-71
2021/12/22 11:37:35;;;;;;;37.40;21.08;;;-1.70;99.90;;;;;;4962285;28;20125;-71
2021/12/22 11:40:03;;;;;;;37.80;20.52;;;-1.60;99.90;;;;;;4957828;28;20039;-71
2021/12/22 11:42:37;;;;;;;39.22;21.50;;;-1.50;99.90;;;;;;4960805;28;20063;-71
2021/12/22 11:45:21;;;;;;;38.65;20.58;;;-1.40;99.90;;;;;;4962882;28;20035;-71
2021/12/22 11:47:50;;;;;;;44.28;22.85;;;-1.20;99.90;;;;;;4960370;28;20034;-71
2021/12/22 11:50:21;;;;;;;43.45;22.10;;;-1.00;99.90;;;;;;4962801;28;20364;-71
2021/12/22 11:53:06;;;;;;;41.13;22.90;;;-1.00;99.90;;;;;;4960048;28;20055;-72
2021/12/22 11:55:43;;;;;;;35.00;20.27;;;-0.90;99.90;;;;;;4977941;28;20023;-71
2021/12/22 11:58:19;;;;;;;40.88;21.50;;;-0.80;99.90;;;;;;4958246;28;20507;-71
2021/12/22 12:00:53;;;;;;;40.92;23.17;;;-0.80;99.90;;;;;;4954132;28;20038;-72
2021/12/22 12:03:23;;;;;;;39.33;22.45;;;-0.80;99.90;;;;;;4970148;28;21358;-72
2021/12/22 12:06:10;;;;;;;35.22;19.60;;;-0.80;99.90;;;;;;4962184;28;20492;-71
2021/12/22 12:08:46;;;;;;;35.53;19.35;;;-0.90;99.90;;;;;;4967429;28;20038;-72
2021/12/22 12:11:21;;;;;;;35.55;19.55;;;-1.00;99.90;;;;;;4961578;28;20045;-71
2021/12/22 12:14:02;;;;;;;37.10;20.17;;;-0.90;99.90;;;;;;4969983;28;20055;-73
2021/12/22 12:22:37;;;;;;;37.88;21.98;;;-0.80;99.90;;;;;;4950730;28;20060;-72
2021/12/22 12:25:12;;;;;;;39.03;22.48;;;-0.80;99.90;;;;;;4966430;28;20055;-72
2021/12/22 12:27:40;;;;;;;40.88;21.67;;;-0.70;99.90;;;;;;4956536;28;20538;-72
2021/12/22 12:30:14;;;;;;;41.55;23.30;;;-0.70;99.90;;;;;;4962050;28;20506;-72
2021/12/22 12:32:40;;;;;;;45.00;24.23;;;-0.70;99.90;;;;;;4973345;28;20152;-77
2021/12/22 12:35:18;;;;;;;42.40;23.17;;;-0.70;99.90;;;;;;4962024;28;20114;-78
2021/12/22 12:38:16;;;;;;;55.95;29.17;;;-0.70;99.90;;;;;;4966797;28;20046;-75
2021/12/22 12:41:00;;;;;;;52.58;29.20;;;-0.80;99.90;;;;;;4968371;28;20035;-76
2021/12/22 12:43:41;;;;;;;38.40;21.60;;;-0.90;99.90;;;;;;4965252;28;20517;-77
2021/12/22 12:46:20;;;;;;;39.00;21.42;;;-1.20;99.90;;;;;;4961964;28;20071;-73
2021/12/22 12:49:02;;;;;;;37.33;20.70;;;-1.00;99.90;;;;;;4967977;28;20049;-73
2021/12/22 12:51:42;;;;;;;42.03;22.92;;;-1.00;99.90;;;;;;4964696;28;20050;-73
2021/12/22 12:54:21;;;;;;;39.55;22.63;;;-1.00;99.90;;;;;;4965358;28;20431;-74
2021/12/22 12:56:59;;;;;;;37.22;20.67;;;-0.90;99.90;;;;;;4963410;28;20038;-73
2021/12/22 12:59:37;;;;;;;36.88;20.80;;;-0.90;99.90;;;;;;4960336;28;20037;-74
2021/12/22 13:02:04;;;;;;;39.42;21.83;;;-0.90;99.90;;;;;;4958115;28;20398;-75
2021/12/22 13:04:35;;;;;;;43.78;25.85;;;-0.90;99.90;;;;;;4962867;28;20530;-73
2021/12/22 13:07:00;;;;;;;60.13;33.35;;;-0.90;99.90;;;;;;4962045;28;20138;-74